Time;durP1;ratioP1;P1;durP2;ratioP2;P2;SDS_P1;SDS_P2;PMS_P1;PMS_P2;Temp;Humidity;BMP_temperature;BMP_pressure;BME280_temperature;BME280_humidity;BME280_pressure;Samples;Min_cycle;Max_cycle;Signal;HPM_P1;HPM_P2
2023/08/10 00:00:15;;;;;;;6.00;2.20;;;16.30;1.00;;;;;;4974519;28;20400;-68
2023/08/10 00:02:44;;;;;;;6.75;1.95;;;16.30;1.00;;;;;;4980584;28;20472;-68
2023/08/10 00:05:11;;;;;;;5.60;2.20;;;16.30;1.00;;;;;;4973223;28;20856;-69
2023/08/10 00:07:37;;;;;;;7.07;2.60;;;16.20;1.00;;;;;;4970062;28;20523;-69
2023/08/10 00:10:04;;;;;;;7.88;2.38;;;16.10;1.00;;;;;;4970661;28;20418;-68
2023/08/10 00:12:29;;;;;;;9.63;2.75;;;16.10;1.00;;;;;;4971378;28;20415;-68
2023/08/10 00:14:55;;;;;;;7.10;2.90;;;16.10;1.00;;;;;;4989843;28;20429;-68
2023/08/10 00:17:23;;;;;;;6.55;2.70;;;16.10;1.00;;;;;;4990380;28;20446;-68
2023/08/10 00:19:49;;;;;;;6.25;2.20;;;16.10;1.00;;;;;;4986903;28;20392;-69
2023/08/10 00:22:15;;;;;;;7.60;2.50;;;16.00;1.00;;;;;;4972028;28;20470;-67
2023/08/10 00:24:40;;;;;;;6.70;2.20;;;16.00;1.00;;;;;;4972672;28;20404;-67
2023/08/10 00:27:06;;;;;;;9.50;2.80;;;16.00;1.00;;;;;;4966067;28;20433;-68
2023/08/10 00:29:32;;;;;;;6.70;2.45;;;16.00;1.00;;;;;;4965265;28;20980;-67
2023/08/10 00:31:58;;;;;;;6.85;2.30;;;15.90;1.00;;;;;;4972410;28;20396;-67
2023/08/10 00:34:23;;;;;;;6.73;2.43;;;15.90;1.00;;;;;;4970032;28;20487;-67
2023/08/10 00:36:49;;;;;;;8.03;2.77;;;15.90;1.00;;;;;;4956011;28;20467;-68
2023/08/10 00:39:14;;;;;;;6.57;2.27;;;15.70;1.00;;;;;;4971003;28;20478;-69
2023/08/10 00:41:41;;;;;;;7.22;2.55;;;15.70;1.00;;;;;;4969033;28;20412;-68
2023/08/10 00:44:08;;;;;;;6.93;2.75;;;15.70;1.00;;;;;;4967165;28;20412;-68
2023/08/10 00:46:34;;;;;;;7.57;2.80;;;15.70;1.00;;;;;;4964856;28;20448;-68
2023/08/10 00:49:01;;;;;;;6.40;2.45;;;15.60;1.00;;;;;;4970241;28;20510;-68
2023/08/10 00:51:26;;;;;;;6.80;2.00;;;15.60;1.00;;;;;;4968951;28;20456;-68
2023/08/10 00:53:53;;;;;;;6.35;2.13;;;15.60;1.00;;;;;;4967798;28;20458;-68
2023/08/10 00:56:19;;;;;;;6.20;2.50;;;15.60;1.00;;;;;;4957357;28;20776;-68
2023/08/10 00:58:45;;;;;;;6.57;2.35;;;15.70;1.00;;;;;;4969098;28;20424;-67
2023/08/10 01:01:11;;;;;;;13.48;2.60;;;15.60;1.00;;;;;;4972556;28;20403;-68
2023/08/10 01:03:36;;;;;;;6.22;2.67;;;15.60;1.00;;;;;;4958615;28;20852;-68
2023/08/10 01:06:32;;;;;;;6.10;2.40;;;15.50;1.00;;;;;;4972798;28;20753;-68
2023/08/10 01:09:12;;;;;;;9.48;3.00;;;15.40;1.00;;;;;;4973096;28;20408;-68
2023/08/10 01:11:41;;;;;;;8.77;2.05;;;15.30;1.00;;;;;;4972977;28;20411;-68
2023/08/10 01:14:26;;;;;;;6.83;2.60;;;15.20;1.00;;;;;;4973591;28;20449;-68
2023/08/10 01:16:52;;;;;;;9.02;2.80;;;15.10;1.00;;;;;;4972804;28;20482;-68
2023/08/10 01:19:40;;;;;;;10.27;2.70;;;15.10;1.00;;;;;;4973150;28;20404;-68
2023/08/10 01:22:23;;;;;;;7.50;2.40;;;15.20;1.00;;;;;;4990333;28;20778;-68
2023/08/10 01:25:04;;;;;;;5.82;2.30;;;15.10;1.00;;;;;;4986891;28;20437;-68
2023/08/10 01:27:31;;;;;;;6.75;2.67;;;15.10;1.00;;;;;;4973456;28;20403;-68
2023/08/10 01:29:57;;;;;;;7.60;2.60;;;15.10;1.00;;;;;;4972888;28;20454;-68
2023/08/10 01:32:22;;;;;;;7.38;2.85;;;15.20;1.00;;;;;;4970879;28;20504;-68
2023/08/10 01:34:50;;;;;;;7.47;2.67;;;15.10;1.00;;;;;;4971259;28;20504;-68
2023/08/10 01:37:16;;;;;;;7.13;2.72;;;15.00;1.00;;;;;;4972680;28;20781;-68
2023/08/10 01:39:41;;;;;;;6.05;2.28;;;14.90;1.00;;;;;;4972351;28;20420;-68
2023/08/10 01:42:07;;;;;;;5.95;2.60;;;14.90;1.00;;;;;;4972368;28;20416;-68
2023/08/10 01:44:32;;;;;;;9.47;2.83;;;14.90;1.00;;;;;;4972063;28;20750;-68
2023/08/10 01:47:01;;;;;;;6.10;1.93;;;14.90;1.00;;;;;;4971549;28;20431;-68
2023/08/10 01:49:33;;;;;;;6.35;2.20;;;14.80;1.00;;;;;;4972095;28;20399;-68
2023/08/10 01:52:01;;;;;;;5.82;2.10;;;14.70;1.00;;;;;;4966776;28;20514;-68
2023/08/10 01:54:28;;;;;;;6.97;2.70;;;14.70;1.00;;;;;;4970973;28;20403;-68
2023/08/10 01:56:53;;;;;;;6.70;2.60;;;14.80;1.00;;;;;;4969010;28;20508;-69
2023/08/10 01:59:19;;;;;;;6.63;2.58;;;14.80;1.00;;;;;;4969731;28;20532;-68
2023/08/10 02:01:44;;;;;;;8.43;3.05;;;14.90;1.00;;;;;;4971092;28;20415;-68
2023/08/10 02:04:10;;;;;;;8.23;2.80;;;14.70;1.00;;;;;;4966293;28;20412;-68
2023/08/10 02:06:40;;;;;;;6.20;2.17;;;14.50;1.00;;;;;;4971018;28;20955;-68
2023/08/10 02:09:06;;;;;;;5.50;2.00;;;14.50;1.00;;;;;;4970750;28;20994;-68
2023/08/10 02:11:32;;;;;;;5.68;2.15;;;14.40;1.00;;;;;;4971100;28;20412;-68
2023/08/10 02:13:57;;;;;;;6.00;2.10;;;14.40;1.00;;;;;;4970771;28;20442;-68
2023/08/10 02:16:23;;;;;;;6.67;2.50;;;14.30;1.00;;;;;;4971373;28;20432;-68
2023/08/10 02:18:49;;;;;;;7.50;3.10;;;14.20;1.00;;;;;;4971617;28;20423;-68
2023/08/10 02:21:15;;;;;;;6.40;2.10;;;14.30;1.00;;;;;;4969007;28;20758;-68
2023/08/10 02:23:40;;;;;;;7.10;1.80;;;14.20;1.00;;;;;;4970848;28;20974;-68
2023/08/10 02:26:06;;;;;;;6.40;2.00;;;14.30;1.00;;;;;;4970860;28;20422;-68
2023/08/10 02:28:31;;;;;;;8.00;2.30;;;14.30;1.00;;;;;;4969188;28;20430;-68
2023/08/10 02:30:57;;;;;;;6.63;2.50;;;14.30;1.00;;;;;;4970284;28;20491;-68
2023/08/10 02:33:22;;;;;;;5.50;2.00;;;14.30;1.00;;;;;;4969980;28;20392;-68
2023/08/10 02:35:48;;;;;;;6.43;2.17;;;14.20;1.00;;;;;;4971841;28;20900;-68
2023/08/10 02:38:14;;;;;;;6.50;2.20;;;14.30;1.00;;;;;;4958361;28;20476;-68
2023/08/10 02:40:41;;;;;;;6.00;2.20;;;14.20;1.00;;;;;;4966318;28;20407;-68
2023/08/10 02:43:06;;;;;;;6.53;2.40;;;14.10;1.00;;;;;;4970654;28;20427;-68
2023/08/10 02:45:32;;;;;;;6.57;2.03;;;14.10;1.00;;;;;;4970803;28;20777;-68
2023/08/10 02:47:57;;;;;;;5.63;2.10;;;14.00;1.00;;;;;;4970069;28;20487;-68
2023/08/10 02:50:22;;;;;;;6.80;2.10;;;14.00;1.00;;;;;;4970522;28;20415;-69
2023/08/10 02:52:48;;;;;;;5.88;1.92;;;13.90;1.00;;;;;;4971242;28;20498;-68
2023/08/10 02:55:17;;;;;;;5.93;1.93;;;13.80;1.00;;;;;;4968278;28;20421;-68
2023/08/10 02:57:43;;;;;;;5.53;1.90;;;13.70;1.00;;;;;;4970911;28;20932;-68
2023/08/10 03:00:12;;;;;;;6.78;2.30;;;13.90;1.00;;;;;;4970283;28;20431;-68
2023/08/10 03:02:38;;;;;;;6.93;2.58;;;13.90;1.00;;;;;;4959925;28;20414;-68
2023/08/10 03:05:05;;;;;;;7.65;2.45;;;13.80;1.00;;;;;;4966913;28;20438;-68
2023/08/10 03:07:31;;;;;;;6.53;2.03;;;13.70;1.00;;;;;;4968966;28;20412;-68
2023/08/10 03:09:57;;;;;;;6.97;2.40;;;13.60;1.00;;;;;;4984879;28;20507;-68
2023/08/10 03:12:22;;;;;;;6.90;2.53;;;13.70;1.00;;;;;;4970568;28;20496;-68
2023/08/10 03:14:48;;;;;;;8.17;2.70;;;13.80;1.00;;;;;;4968788;28;20404;-68
2023/08/10 03:17:14;;;;;;;8.13;2.43;;;13.80;1.00;;;;;;4961551;28;20550;-68
2023/08/10 03:19:41;;;;;;;7.78;2.60;;;13.90;1.00;;;;;;4969172;28;20456;-68
2023/08/10 03:22:06;;;;;;;7.22;3.17;;;14.10;1.00;;;;;;4971335;28;20546;-68
2023/08/10 03:24:32;;;;;;;7.63;2.97;;;14.10;1.00;;;;;;4989617;28;20470;-68
2023/08/10 03:26:57;;;;;;;7.97;3.20;;;14.10;1.00;;;;;;4979596;28;20396;-68
2023/08/10 03:29:23;;;;;;;7.70;3.50;;;14.10;1.00;;;;;;4970167;28;20396;-68
2023/08/10 03:31:49;;;;;;;7.68;2.60;;;13.90;1.00;;;;;;4959423;28;20421;-68
2023/08/10 03:34:14;;;;;;;6.93;2.50;;;13.90;1.00;;;;;;4950598;29;20402;-68
2023/08/10 03:36:39;;;;;;;8.87;2.70;;;13.80;1.00;;;;;;4966071;28;21584;-68
2023/08/10 03:39:05;;;;;;;7.23;2.60;;;13.80;1.00;;;;;;4969585;28;20742;-68
2023/08/10 03:41:31;;;;;;;7.40;2.78;;;13.80;1.00;;;;;;4968489;28;20862;-68
2023/08/10 03:43:56;;;;;;;7.50;2.80;;;13.70;1.00;;;;;;4967042;28;20415;-68
2023/08/10 03:46:22;;;;;;;6.60;2.50;;;13.70;1.10;;;;;;4969169;28;20524;-69
2023/08/10 03:48:47;;;;;;;6.72;2.60;;;13.70;3.50;;;;;;4969524;28;20897;-68
2023/08/10 03:51:13;;;;;;;6.83;3.13;;;13.80;1.00;;;;;;4967581;28;20427;-68
2023/08/10 03:53:38;;;;;;;6.60;2.50;;;13.90;1.00;;;;;;4968754;28;20932;-68
2023/08/10 03:56:04;;;;;;;6.50;2.57;;;13.90;1.00;;;;;;4968348;28;20960;-68
2023/08/10 03:58:29;;;;;;;7.13;2.90;;;14.00;1.00;;;;;;4968240;28;20408;-68
2023/08/10 04:00:55;;;;;;;7.20;2.67;;;14.10;1.00;;;;;;4967437;28;20481;-68
2023/08/10 04:03:21;;;;;;;8.57;3.53;;;14.00;1.00;;;;;;4969009;28;20417;-68
2023/08/10 04:05:46;;;;;;;8.48;2.58;;;13.90;28.40;;;;;;4967794;28;20408;-68
2023/08/10 04:08:12;;;;;;;7.30;3.00;;;13.90;32.70;;;;;;4966707;28;20833;-68
2023/08/10 04:10:37;;;;;;;6.83;2.50;;;13.90;48.60;;;;;;4968195;28;20750;-69
2023/08/10 04:13:03;;;;;;;8.45;3.10;;;13.90;59.50;;;;;;4967418;28;20416;-69
2023/08/10 04:15:32;;;;;;;7.05;2.80;;;13.90;77.30;;;;;;4966666;28;20509;-69
2023/08/10 04:17:59;;;;;;;6.63;2.63;;;13.90;81.90;;;;;;4966783;28;20566;-73
2023/08/10 04:20:25;;;;;;;9.60;2.70;;;13.90;63.80;;;;;;4962262;28;20452;-73
2023/08/10 04:22:50;;;;;;;7.10;3.00;;;13.90;99.90;;;;;;4956290;28;20469;-73
2023/08/10 04:25:16;;;;;;;7.17;2.30;;;13.80;99.90;;;;;;4961353;28;20444;-73
2023/08/10 04:27:41;;;;;;;6.50;2.43;;;13.90;99.90;;;;;;4959161;28;20466;-72
2023/08/10 04:30:08;;;;;;;7.82;3.40;;;13.90;99.90;;;;;;4964908;28;20511;-72
2023/08/10 04:32:35;;;;;;;7.40;2.90;;;13.90;99.90;;;;;;4953103;28;20446;-72
2023/08/10 04:35:00;;;;;;;10.63;3.10;;;14.00;99.90;;;;;;4954033;28;20420;-72
2023/08/10 04:37:26;;;;;;;9.05;2.60;;;13.90;99.90;;;;;;4963529;28;20439;-72
2023/08/10 04:39:52;;;;;;;6.82;2.95;;;14.00;99.90;;;;;;4957279;28;20408;-73
2023/08/10 04:42:18;;;;;;;9.00;2.80;;;14.10;99.90;;;;;;4954841;28;20484;-75
2023/08/10 04:44:44;;;;;;;7.80;3.27;;;14.00;99.90;;;;;;4956748;28;20431;-74
2023/08/10 04:47:09;;;;;;;7.55;2.92;;;14.10;99.90;;;;;;4962170;28;20920;-73
2023/08/10 04:49:35;;;;;;;7.30;2.77;;;14.10;99.90;;;;;;4961634;28;20467;-73
2023/08/10 04:52:01;;;;;;;8.10;3.20;;;14.20;99.90;;;;;;4957391;28;20416;-73
2023/08/10 04:54:27;;;;;;;6.80;2.75;;;14.20;99.90;;;;;;4951632;28;20428;-72
2023/08/10 04:56:53;;;;;;;9.40;3.13;;;14.30;99.90;;;;;;4960279;28;20432;-73
2023/08/10 04:59:18;;;;;;;6.55;2.97;;;14.50;99.90;;;;;;4960161;28;20417;-73
2023/08/10 05:01:44;;;;;;;7.93;3.00;;;14.60;63.00;;;;;;4959626;28;20429;-73
2023/08/10 05:04:09;;;;;;;9.47;3.10;;;14.70;43.30;;;;;;4956985;28;20398;-72
2023/08/10 05:06:36;;;;;;;9.90;4.37;;;14.90;99.90;;;;;;4963140;28;20420;-73
2023/08/10 05:09:02;;;;;;;10.27;3.40;;;15.70;99.90;;;;;;4961713;28;20418;-73
2023/08/10 05:11:28;;;;;;;6.65;3.00;;;16.50;1.00;;;;;;4963191;28;20501;-74
2023/08/10 05:13:53;;;;;;;8.52;2.63;;;17.20;1.00;;;;;;4977636;28;20816;-72
2023/08/10 05:16:19;;;;;;;7.90;2.70;;;17.70;99.90;;;;;;4956239;28;20504;-68
2023/08/10 05:18:44;;;;;;;6.60;2.70;;;18.40;1.00;;;;;;4965955;28;20514;-68
2023/08/10 05:21:10;;;;;;;7.80;3.33;;;18.70;99.90;;;;;;4961267;28;21439;-68
2023/08/10 05:23:37;;;;;;;6.73;2.40;;;19.00;99.90;;;;;;4962503;28;20419;-68
2023/08/10 05:26:02;;;;;;;6.45;2.50;;;19.20;1.00;;;;;;4985453;28;20696;-68
2023/08/10 05:28:28;;;;;;;6.77;2.63;;;19.50;99.90;;;;;;4970871;28;20416;-68
2023/08/10 05:30:53;;;;;;;6.97;2.47;;;20.00;22.60;;;;;;4969262;28;20479;-68
2023/08/10 05:33:19;;;;;;;8.60;2.43;;;20.40;1.00;;;;;;4968739;28;20393;-68
2023/08/10 05:35:46;;;;;;;6.57;2.10;;;20.80;99.90;;;;;;4951738;28;20911;-68
2023/08/10 05:38:12;;;;;;;7.50;2.78;;;21.10;99.90;;;;;;4953210;28;20447;-68
2023/08/10 05:40:38;;;;;;;7.50;2.30;;;20.90;99.90;;;;;;4967048;28;20406;-69
2023/08/10 05:43:04;;;;;;;7.90;2.30;;;21.20;99.90;;;;;;4988150;28;20387;-69
2023/08/10 05:45:30;;;;;;;7.47;2.80;;;22.10;53.80;;;;;;4988029;28;20397;-69
2023/08/10 05:47:56;;;;;;;7.57;2.70;;;22.50;1.00;;;;;;4989679;28;20512;-69
2023/08/10 05:50:21;;;;;;;8.00;2.58;;;22.90;1.00;;;;;;4984271;28;20411;-69
2023/08/10 05:52:48;;;;;;;7.13;2.60;;;23.60;1.00;;;;;;4971945;28;20419;-68
2023/08/10 05:55:14;;;;;;;6.90;2.50;;;23.40;1.00;;;;;;4970776;28;21045;-68
2023/08/10 05:57:40;;;;;;;7.10;2.83;;;22.40;1.00;;;;;;4971038;28;20424;-68
2023/08/10 06:00:08;;;;;;;8.85;3.28;;;21.30;1.00;;;;;;4971156;28;20885;-68
2023/08/10 06:02:33;;;;;;;9.27;3.63;;;20.50;99.90;;;;;;4969441;28;20404;-68
2023/08/10 06:04:59;;;;;;;8.10;3.30;;;19.70;99.90;;;;;;4967425;28;20471;-68
2023/08/10 06:07:24;;;;;;;8.50;3.00;;;19.30;99.90;;;;;;4970388;28;20426;-68
2023/08/10 06:09:50;;;;;;;9.00;3.30;;;18.90;99.90;;;;;;4971310;28;20837;-68
2023/08/10 06:12:17;;;;;;;9.00;3.45;;;18.50;99.90;;;;;;4971829;28;20446;-68
2023/08/10 06:14:44;;;;;;;10.68;3.45;;;18.10;1.00;;;;;;4971386;28;20412;-68
2023/08/10 06:17:09;;;;;;;9.10;3.40;;;17.80;99.90;;;;;;4969474;28;20436;-68
2023/08/10 06:19:35;;;;;;;9.00;4.25;;;17.70;99.90;;;;;;4971618;28;20460;-68
2023/08/10 06:22:00;;;;;;;7.13;3.13;;;17.50;99.90;;;;;;4970554;28;20436;-68
2023/08/10 06:24:26;;;;;;;11.53;3.70;;;17.30;1.00;;;;;;4969794;28;20423;-68
2023/08/10 06:26:52;;;;;;;8.77;3.60;;;17.30;1.00;;;;;;4970930;28;20422;-68
2023/08/10 06:29:17;;;;;;;8.13;3.30;;;17.30;99.90;;;;;;4971949;28;20412;-67
2023/08/10 06:31:43;;;;;;;9.23;3.77;;;17.30;1.00;;;;;;4970663;28;20420;-68
2023/08/10 06:34:09;;;;;;;9.47;3.80;;;17.30;1.00;;;;;;4971071;28;20452;-68
2023/08/10 06:36:34;;;;;;;8.80;3.60;;;17.20;1.00;;;;;;4970578;28;20416;-68
2023/08/10 06:39:01;;;;;;;10.00;3.55;;;17.40;1.00;;;;;;4970118;28;20420;-68
2023/08/10 06:41:26;;;;;;;9.05;3.33;;;17.50;1.00;;;;;;4970744;28;20792;-68
2023/08/10 06:43:52;;;;;;;8.30;3.53;;;17.50;1.00;;;;;;4970788;28;20498;-68
2023/08/10 06:46:17;;;;;;;7.93;3.77;;;17.50;1.00;;;;;;4970354;28;20466;-68
2023/08/10 06:48:43;;;;;;;10.07;3.45;;;17.50;1.00;;;;;;4970539;28;20411;-68
2023/08/10 06:51:08;;;;;;;7.85;3.60;;;17.60;1.00;;;;;;4969687;28;20435;-68
2023/08/10 06:53:34;;;;;;;9.10;4.47;;;17.70;99.90;;;;;;4970884;28;20399;-68
2023/08/10 06:55:59;;;;;;;8.87;4.40;;;17.70;1.00;;;;;;4969510;28;20420;-68
2023/08/10 06:58:25;;;;;;;8.07;3.70;;;17.80;1.00;;;;;;4968829;28;20427;-68
2023/08/10 07:00:51;;;;;;;8.40;4.00;;;18.00;1.00;;;;;;4968844;28;20407;-68
2023/08/10 07:03:16;;;;;;;9.27;3.77;;;18.20;99.90;;;;;;4970634;28;20926;-68
2023/08/10 07:05:43;;;;;;;7.70;3.60;;;18.20;99.90;;;;;;4970435;28;20410;-68
2023/08/10 07:08:09;;;;;;;9.33;3.90;;;18.30;99.90;;;;;;4969343;28;20396;-68
2023/08/10 07:10:36;;;;;;;7.97;3.42;;;18.30;99.90;;;;;;4964740;28;20433;-68
2023/08/10 07:13:01;;;;;;;8.47;3.73;;;18.30;1.00;;;;;;4960300;28;20421;-68
2023/08/10 07:15:27;;;;;;;9.05;3.83;;;18.30;1.00;;;;;;4970427;28;20396;-68
2023/08/10 07:17:53;;;;;;;8.30;3.38;;;18.00;99.90;;;;;;4969512;28;20460;-68
2023/08/10 07:20:18;;;;;;;8.70;3.80;;;18.10;99.90;;;;;;4970063;28;20407;-68
2023/08/10 07:22:48;;;;;;;8.88;3.80;;;18.40;31.60;;;;;;4985062;28;20472;-67
2023/08/10 07:25:18;;;;;;;8.90;3.90;;;18.60;32.60;;;;;;4987622;28;20398;-67
2023/08/10 07:27:45;;;;;;;9.13;3.88;;;18.70;99.90;;;;;;4970972;28;20983;-67
2023/08/10 07:30:13;;;;;;;8.95;4.05;;;18.80;99.90;;;;;;4970462;28;20408;-67
2023/08/10 07:32:39;;;;;;;10.03;4.40;;;19.00;99.90;;;;;;4970416;28;20392;-67
2023/08/10 07:35:05;;;;;;;9.32;3.88;;;19.20;94.60;;;;;;4969964;28;20797;-67
2023/08/10 07:37:30;;;;;;;9.52;4.10;;;19.30;99.90;;;;;;4968459;28;20424;-67
2023/08/10 07:39:56;;;;;;;8.82;3.88;;;19.50;99.90;;;;;;4969747;28;20499;-67
2023/08/10 07:42:22;;;;;;;9.20;4.03;;;19.50;1.00;;;;;;4970146;28;20404;-67
2023/08/10 07:44:48;;;;;;;9.77;3.45;;;19.80;99.90;;;;;;4970627;28;20826;-67
2023/08/10 07:47:13;;;;;;;9.50;3.78;;;20.20;1.00;;;;;;4970509;28;20931;-68
2023/08/10 07:49:41;;;;;;;9.40;3.90;;;20.40;99.90;;;;;;4968202;28;20809;-68
2023/08/10 07:52:07;;;;;;;11.02;3.38;;;20.70;1.00;;;;;;4969029;28;20518;-68
2023/08/10 07:54:32;;;;;;;7.60;3.77;;;20.90;99.90;;;;;;4969625;28;20916;-68
2023/08/10 07:56:58;;;;;;;10.10;4.07;;;21.40;40.20;;;;;;4968634;28;20841;-68
2023/08/10 07:59:23;;;;;;;9.40;4.30;;;22.20;99.90;;;;;;4960545;28;20412;-68
2023/08/10 08:01:49;;;;;;;10.40;4.07;;;22.60;99.90;;;;;;4969904;28;20415;-68
2023/08/10 08:04:14;;;;;;;8.30;3.80;;;22.70;91.40;;;;;;4968080;28;20931;-68
2023/08/10 08:06:40;;;;;;;9.30;3.30;;;23.10;11.60;;;;;;4969525;28;21374;-68
2023/08/10 08:09:07;;;;;;;9.30;3.87;;;23.80;1.00;;;;;;4970725;28;20399;-68
2023/08/10 08:11:34;;;;;;;9.50;3.63;;;24.60;1.00;;;;;;4962755;28;20767;-68
2023/08/10 08:14:00;;;;;;;8.40;3.80;;;25.80;1.00;;;;;;4970319;28;20419;-67
2023/08/10 08:16:26;;;;;;;8.52;3.70;;;26.20;1.00;;;;;;4969859;28;20416;-68
2023/08/10 08:18:55;;;;;;;8.60;3.55;;;27.40;99.90;;;;;;4968003;28;20392;-68
2023/08/10 08:21:22;;;;;;;8.13;3.40;;;28.20;99.90;;;;;;4969260;28;20871;-68
2023/08/10 08:23:49;;;;;;;9.27;3.50;;;28.40;99.90;;;;;;4960310;28;20410;-68
2023/08/10 08:26:16;;;;;;;7.60;3.42;;;29.10;99.90;;;;;;4958370;28;20454;-68
2023/08/10 08:28:42;;;;;;;8.30;3.67;;;28.80;99.90;;;;;;4969557;28;20442;-69
2023/08/10 08:31:08;;;;;;;8.10;3.10;;;29.20;99.90;;;;;;4968240;28;20412;-68
2023/08/10 08:33:34;;;;;;;7.20;3.10;;;29.80;99.90;;;;;;4968506;28;20419;-68
2023/08/10 08:36:00;;;;;;;7.97;3.00;;;30.20;99.90;;;;;;4979914;28;20887;-69
2023/08/10 08:38:25;;;;;;;7.43;2.70;;;30.80;99.90;;;;;;4989350;28;20414;-68
2023/08/10 08:40:53;;;;;;;8.57;3.10;;;31.10;99.90;;;;;;4972517;28;20388;-68
2023/08/10 08:43:18;;;;;;;8.68;3.20;;;30.10;99.90;;;;;;4970570;28;20479;-68
2023/08/10 08:45:44;;;;;;;7.70;3.00;;;30.40;99.90;;;;;;4969274;28;20478;-68
2023/08/10 08:48:14;;;;;;;9.52;3.10;;;32.10;99.90;;;;;;4970106;28;20400;-68
2023/08/10 08:50:40;;;;;;;7.15;2.67;;;33.30;99.90;;;;;;4969936;28;20399;-68
2023/08/10 08:53:08;;;;;;;9.75;3.03;;;33.20;99.90;;;;;;4987313;28;20406;-68
2023/08/10 08:55:33;;;;;;;6.88;2.90;;;32.60;99.90;;;;;;4989196;28;20838;-69
2023/08/10 08:57:59;;;;;;;7.40;3.30;;;32.20;99.90;;;;;;4988952;28;20422;-68
2023/08/10 09:00:25;;;;;;;7.80;3.03;;;32.40;99.90;;;;;;4974142;28;20923;-68
2023/08/10 09:02:53;;;;;;;7.57;2.70;;;32.30;99.90;;;;;;4970174;28;20495;-68
2023/08/10 09:05:19;;;;;;;7.50;2.50;;;31.90;99.90;;;;;;4969973;28;20404;-68
2023/08/10 09:07:45;;;;;;;7.40;3.30;;;31.70;99.90;;;;;;4969532;28;20423;-69
2023/08/10 09:10:11;;;;;;;8.82;3.17;;;32.50;99.90;;;;;;4969800;28;20479;-69
2023/08/10 09:12:39;;;;;;;7.10;2.70;;;32.90;99.90;;;;;;4969397;28;20547;-69
2023/08/10 09:15:16;;;;;;;8.02;3.55;;;33.20;99.90;;;;;;4969721;28;20493;-69
2023/08/10 09:17:52;;;;;;;7.43;3.63;;;33.60;99.90;;;;;;4969503;28;20436;-69
2023/08/10 09:20:26;;;;;;;8.10;3.78;;;33.80;99.90;;;;;;4970434;28;20499;-69
2023/08/10 09:22:54;;;;;;;7.78;3.47;;;34.00;99.90;;;;;;4971700;28;20444;-68
2023/08/10 09:25:20;;;;;;;8.00;3.10;;;34.00;99.90;;;;;;4973816;28;20530;-68
2023/08/10 09:27:47;;;;;;;8.07;3.72;;;34.30;99.90;;;;;;4976491;28;20392;-68
2023/08/10 09:30:14;;;;;;;7.60;2.90;;;33.60;99.90;;;;;;4992957;28;20879;-68
2023/08/10 09:32:39;;;;;;;8.60;3.40;;;33.00;99.90;;;;;;4990552;28;20801;-68
2023/08/10 09:35:11;;;;;;;8.50;3.37;;;32.50;99.90;;;;;;4973571;28;20404;-69
2023/08/10 09:37:37;;;;;;;9.90;3.60;;;32.30;99.90;;;;;;4973198;28;20494;-69
2023/08/10 09:40:10;;;;;;;7.47;3.50;;;31.80;99.90;;;;;;4973505;28;20757;-68
2023/08/10 09:42:36;;;;;;;7.85;3.80;;;32.30;1.00;;;;;;4971542;28;20472;-69
2023/08/10 09:45:12;;;;;;;8.50;3.90;;;33.10;1.00;;;;;;4973406;28;20468;-69
2023/08/10 09:47:40;;;;;;;8.00;3.63;;;34.80;99.90;;;;;;4972653;28;20412;-69
2023/08/10 09:50:12;;;;;;;8.52;3.83;;;35.00;99.90;;;;;;4973344;28;20404;-69
2023/08/10 09:52:37;;;;;;;9.05;3.50;;;33.40;99.90;;;;;;4973012;28;20432;-69
2023/08/10 09:55:05;;;;;;;7.95;3.50;;;33.10;99.90;;;;;;4973524;28;20435;-69
2023/08/10 09:57:31;;;;;;;8.60;4.00;;;34.00;99.90;;;;;;4972926;28;20436;-69
2023/08/10 09:59:57;;;;;;;8.18;4.15;;;34.30;99.90;;;;;;4971373;28;20432;-68
2023/08/10 10:02:24;;;;;;;7.90;3.40;;;33.50;99.90;;;;;;4972606;28;20864;-68
2023/08/10 10:04:51;;;;;;;8.13;3.70;;;32.70;99.90;;;;;;4973491;28;20821;-69
2023/08/10 10:07:26;;;;;;;8.05;3.33;;;32.90;99.90;;;;;;4972768;28;20424;-69
2023/08/10 10:09:53;;;;;;;7.70;3.00;;;33.80;99.90;;;;;;4970437;28;20456;-69
2023/08/10 10:12:19;;;;;;;7.10;2.60;;;34.60;99.90;;;;;;4971643;28;20892;-69
2023/08/10 10:14:47;;;;;;;7.70;2.88;;;34.30;99.90;;;;;;4972587;28;20454;-69
2023/08/10 10:17:14;;;;;;;8.50;2.80;;;35.10;99.90;;;;;;4971717;28;20420;-69
2023/08/10 10:19:40;;;;;;;7.10;2.70;;;35.70;99.90;;;;;;4972107;28;20408;-69
2023/08/10 10:22:07;;;;;;;7.82;2.90;;;34.80;99.90;;;;;;4972171;28;20424;-69
2023/08/10 10:24:33;;;;;;;7.00;2.90;;;34.70;99.90;;;;;;4971876;28;20392;-68
2023/08/10 10:27:09;;;;;;;8.35;2.70;;;33.40;99.90;;;;;;4971895;28;20392;-69
2023/08/10 10:29:36;;;;;;;7.47;2.80;;;32.50;99.90;;;;;;4988897;28;20389;-69
2023/08/10 10:32:21;;;;;;;8.47;3.30;;;32.20;99.90;;;;;;4991141;28;20399;-69
2023/08/10 10:34:49;;;;;;;7.15;2.42;;;32.50;99.90;;;;;;4955483;28;20928;-68
2023/08/10 10:37:30;;;;;;;6.85;2.90;;;32.30;99.90;;;;;;4978708;28;21183;-68
2023/08/10 10:40:15;;;;;;;6.88;2.33;;;31.90;99.90;;;;;;4991672;28;20445;-68
2023/08/10 10:43:03;;;;;;;7.50;2.60;;;32.00;99.90;;;;;;4973205;28;20400;-68
2023/08/10 10:45:33;;;;;;;6.57;2.50;;;31.60;99.90;;;;;;4971532;28;20738;-68
2023/08/10 10:47:59;;;;;;;7.82;2.70;;;30.40;99.90;;;;;;4971881;28;20451;-68
2023/08/10 10:50:28;;;;;;;8.03;2.10;;;29.80;99.90;;;;;;4971537;28;21310;-68
2023/08/10 10:52:54;;;;;;;6.00;1.98;;;29.70;99.90;;;;;;4974050;28;20408;-68
2023/08/10 10:55:41;;;;;;;7.07;2.30;;;29.40;99.90;;;;;;4984301;28;20435;-68
2023/08/10 10:58:09;;;;;;;8.95;2.72;;;29.20;99.90;;;;;;4971618;28;20444;-69
2023/08/10 11:00:36;;;;;;;7.93;2.47;;;29.50;99.90;;;;;;4971409;28;20450;-69
2023/08/10 11:03:06;;;;;;;8.18;3.25;;;29.60;99.90;;;;;;4972435;28;20400;-68
2023/08/10 11:05:34;;;;;;;6.82;2.30;;;29.10;99.90;;;;;;4971892;28;20482;-69
2023/08/10 11:08:06;;;;;;;6.53;2.08;;;28.90;99.90;;;;;;4974067;28;20418;-69
2023/08/10 11:10:37;;;;;;;6.90;2.70;;;29.00;99.90;;;;;;4970961;28;20467;-69
2023/08/10 11:13:11;;;;;;;6.72;2.60;;;28.70;99.90;;;;;;4971539;28;20487;-69
2023/08/10 11:15:37;;;;;;;7.47;3.20;;;28.20;99.90;;;;;;4971244;28;20487;-69
2023/08/10 11:18:12;;;;;;;7.60;2.80;;;28.50;99.90;;;;;;4970824;28;20416;-68
2023/08/10 11:20:45;;;;;;;6.90;2.60;;;28.60;99.90;;;;;;4967450;28;20408;-68
2023/08/10 11:23:12;;;;;;;8.75;2.85;;;28.40;99.90;;;;;;4971126;28;20469;-68
2023/08/10 11:25:45;;;;;;;6.47;2.10;;;28.30;99.90;;;;;;4969365;28;20487;-68
2023/08/10 11:28:11;;;;;;;7.32;2.10;;;28.40;99.90;;;;;;4970655;28;20408;-68
2023/08/10 11:30:36;;;;;;;7.00;2.07;;;28.50;99.90;;;;;;4970719;28;20452;-68
2023/08/10 11:33:02;;;;;;;6.60;2.00;;;28.30;99.90;;;;;;4971212;28;20407;-68
2023/08/10 11:35:28;;;;;;;6.88;1.83;;;28.50;99.90;;;;;;4967986;28;20530;-68
2023/08/10 11:37:53;;;;;;;9.07;3.17;;;28.60;99.90;;;;;;4969887;28;20523;-68
2023/08/10 11:40:21;;;;;;;6.80;2.40;;;28.80;99.90;;;;;;4971322;28;20471;-68
2023/08/10 11:42:49;;;;;;;6.10;2.10;;;28.70;99.90;;;;;;4971440;28;20408;-69
2023/08/10 11:45:23;;;;;;;6.25;2.10;;;28.70;99.90;;;;;;4970747;28;20396;-69
2023/08/10 11:47:51;;;;;;;5.60;1.50;;;28.50;99.90;;;;;;4971097;28;20812;-68
2023/08/10 11:50:18;;;;;;;7.82;1.88;;;28.30;99.90;;;;;;4969918;28;20426;-69
2023/08/10 11:52:52;;;;;;;6.03;1.90;;;28.20;99.90;;;;;;4984266;28;20430;-69
2023/08/10 11:55:18;;;;;;;6.38;1.67;;;28.30;99.90;;;;;;4985560;28;20837;-69
2023/08/10 11:57:48;;;;;;;6.50;2.20;;;28.20;99.90;;;;;;4980133;28;20432;-69
2023/08/10 12:00:22;;;;;;;6.65;2.17;;;28.10;99.90;;;;;;4988646;28;20414;-69
2023/08/10 12:03:11;;;;;;;7.10;2.28;;;27.90;99.90;;;;;;4990638;28;20406;-68
2023/08/10 12:05:37;;;;;;;6.43;2.10;;;28.10;99.90;;;;;;4975901;28;20399;-69
2023/08/10 12:08:10;;;;;;;6.20;1.93;;;28.30;99.90;;;;;;4970417;28;20765;-69
2023/08/10 12:10:38;;;;;;;6.00;1.80;;;28.60;99.90;;;;;;4969572;28;20400;-69
2023/08/10 12:13:10;;;;;;;6.70;2.30;;;28.80;99.90;;;;;;4969639;28;20857;-69
2023/08/10 12:15:37;;;;;;;6.60;1.60;;;28.90;99.90;;;;;;4969950;28;20490;-69
2023/08/10 12:18:04;;;;;;;6.72;1.65;;;28.90;99.90;;;;;;4970411;28;20987;-69
2023/08/10 12:20:29;;;;;;;6.70;2.20;;;29.00;99.90;;;;;;4970712;28;20904;-69
2023/08/10 12:22:55;;;;;;;6.40;2.20;;;28.70;99.90;;;;;;4970119;28;20396;-69
2023/08/10 12:25:21;;;;;;;6.90;2.63;;;28.30;99.90;;;;;;4968935;28;20818;-69
2023/08/10 12:27:47;;;;;;;6.45;2.13;;;28.10;99.90;;;;;;4969022;28;20911;-69
2023/08/10 12:30:12;;;;;;;6.28;1.83;;;28.20;99.90;;;;;;4953446;28;20787;-69
2023/08/10 12:32:38;;;;;;;6.53;1.90;;;28.50;99.90;;;;;;4959137;28;20412;-69
2023/08/10 12:35:04;;;;;;;6.22;1.75;;;28.80;99.90;;;;;;4970009;28;20405;-69
2023/08/10 12:37:29;;;;;;;6.15;1.60;;;28.40;99.90;;;;;;4969597;28;20944;-69
2023/08/10 12:39:56;;;;;;;7.75;1.65;;;28.20;99.90;;;;;;4969336;28;20455;-69
2023/08/10 12:42:21;;;;;;;5.53;1.73;;;28.00;99.90;;;;;;4969478;28;20495;-69
2023/08/10 12:44:47;;;;;;;6.17;2.00;;;27.90;99.90;;;;;;4970512;28;20456;-69
2023/08/10 12:47:13;;;;;;;6.90;2.40;;;27.70;99.90;;;;;;4966564;28;20936;-68
2023/08/10 12:49:39;;;;;;;11.20;2.00;;;27.60;99.90;;;;;;4968166;28;20455;-68